createdAt,value
2018-11-06T00:00:16.680Z,43.93
2018-11-06T00:02:47.051Z,49.33
2018-11-06T00:05:17.864Z,45.20
2018-11-06T00:07:47.205Z,44.47
2018-11-06T00:10:16.564Z,46.83
2018-11-06T00:12:45.911Z,43.23
2018-11-06T00:15:14.971Z,45.03
2018-11-06T00:17:44.125Z,43.53
2018-11-06T00:20:14.303Z,42.90
2018-11-06T00:22:43.535Z,47.33
2018-11-06T00:25:13.528Z,46.23
2018-11-06T00:27:42.881Z,45.30
2018-11-06T00:30:13.486Z,45.17
2018-11-06T00:32:43.356Z,46.67
2018-11-06T00:35:13.870Z,48.30
2018-11-06T00:37:43.635Z,47.87
2018-11-06T00:40:13.315Z,42.90
2018-11-06T00:42:42.675Z,50.60
2018-11-06T00:45:14.093Z,55.50
2018-11-06T00:47:43.385Z,52.33
2018-11-06T00:50:13.462Z,48.00
2018-11-06T00:52:43.587Z,47.80
2018-11-06T00:55:12.973Z,47.47
2018-11-06T00:57:43.566Z,55.27
2018-11-06T01:00:17.576Z,52.10
2018-11-06T01:02:47.198Z,51.93
2018-11-06T01:05:17.036Z,53.50
2018-11-06T01:07:47.726Z,55.37
2018-11-06T01:10:16.864Z,57.70
2018-11-06T01:12:46.136Z,48.30
2018-11-06T01:15:16.075Z,68.30
2018-11-06T01:17:45.926Z,57.13
2018-11-06T01:20:16.476Z,53.17
2018-11-06T01:22:45.634Z,57.17
2018-11-06T01:25:15.191Z,49.00
2018-11-06T01:27:44.406Z,51.73
2018-11-06T01:30:16.803Z,53.53
2018-11-06T01:32:46.407Z,51.83
2018-11-06T01:35:16.126Z,54.50
2018-11-06T01:37:45.827Z,52.37
2018-11-06T01:40:16.045Z,48.40
2018-11-06T01:42:45.640Z,47.07
2018-11-06T01:45:16.055Z,46.93
2018-11-06T01:47:45.143Z,70.20
2018-11-06T01:50:16.533Z,48.13
2018-11-06T01:52:46.839Z,50.93
2018-11-06T01:55:16.091Z,48.67
2018-11-06T01:57:45.435Z,50.27
2018-11-06T02:00:18.242Z,59.67
2018-11-06T02:02:47.676Z,51.83
2018-11-06T02:05:18.028Z,55.07
2018-11-06T02:07:48.427Z,53.77
2018-11-06T02:10:18.267Z,48.60
2018-11-06T02:12:48.038Z,55.00
2018-11-06T02:15:17.212Z,56.63
2018-11-06T02:17:46.747Z,60.90
2018-11-06T02:20:16.563Z,62.47
2018-11-06T02:22:46.396Z,58.33
2018-11-06T02:25:15.752Z,43.90
2018-11-06T02:27:45.222Z,52.70
2018-11-06T02:30:16.042Z,56.67
2018-11-06T02:32:45.876Z,50.17
2018-11-06T02:35:15.013Z,54.10
2018-11-06T02:37:44.387Z,51.43
2018-11-06T02:40:14.682Z,52.13
2018-11-06T02:42:44.264Z,48.50
2018-11-06T02:45:14.172Z,48.67
2018-11-06T02:47:43.760Z,45.53
2018-11-06T02:50:13.983Z,50.40
2018-11-06T02:52:43.838Z,50.20
2018-11-06T02:55:13.354Z,46.53
2018-11-06T02:57:43.110Z,42.90
2018-11-06T03:00:16.226Z,48.10
2018-11-06T03:02:46.218Z,46.07
2018-11-06T03:05:15.499Z,47.70
2018-11-06T03:07:44.807Z,38.40
2018-11-06T03:10:15.108Z,44.00
2018-11-06T03:12:45.133Z,44.70
2018-11-06T03:15:15.130Z,47.93
2018-11-06T03:17:44.683Z,42.60
2018-11-06T03:20:14.711Z,39.37
2018-11-06T03:22:44.498Z,40.53
2018-11-06T03:25:14.092Z,44.00
2018-11-06T03:27:43.529Z,42.73
2018-11-06T03:30:14.583Z,41.37
2018-11-06T03:32:44.517Z,40.83
2018-11-06T03:35:14.558Z,42.10
2018-11-06T03:37:44.248Z,44.03
2018-11-06T03:40:13.844Z,41.43
2018-11-06T03:42:43.698Z,44.03
2018-11-06T03:45:13.948Z,41.20
2018-11-06T03:47:43.412Z,39.40
2018-11-06T03:50:13.500Z,41.37
2018-11-06T03:52:42.588Z,50.10
2018-11-06T03:55:12.033Z,41.47
2018-11-06T03:57:41.701Z,39.57
2018-11-06T04:00:13.665Z,37.47
2018-11-06T04:02:43.379Z,41.33
2018-11-06T04:05:13.121Z,41.70
2018-11-06T04:07:42.331Z,43.60
2018-11-06T04:10:12.524Z,44.63
2018-11-06T04:12:42.139Z,40.67
2018-11-06T04:15:12.674Z,45.60
2018-11-06T04:17:42.537Z,40.73
2018-11-06T04:20:12.144Z,38.90
2018-11-06T04:22:42.130Z,46.70
2018-11-06T04:25:11.474Z,46.73
2018-11-06T04:27:40.531Z,39.83
2018-11-06T04:30:11.648Z,37.53
2018-11-06T04:32:41.330Z,44.13
2018-11-06T04:35:11.157Z,38.93
2018-11-06T04:37:40.941Z,44.53
2018-11-06T04:40:12.259Z,37.47
2018-11-06T04:42:41.500Z,35.70
2018-11-06T04:45:11.590Z,38.80
2018-11-06T04:47:41.111Z,40.20
2018-11-06T04:50:11.305Z,36.77
2018-11-06T04:52:40.941Z,36.93
2018-11-06T04:55:11.376Z,34.27
2018-11-06T04:57:40.632Z,39.03
2018-11-06T05:00:11.967Z,34.27
2018-11-06T05:02:41.523Z,37.30
2018-11-06T05:05:11.239Z,33.20
2018-11-06T05:07:40.712Z,32.77
2018-11-06T05:10:13.548Z,36.07
2018-11-06T05:12:42.688Z,36.40
2018-11-06T05:15:13.116Z,36.43
2018-11-06T05:17:42.444Z,39.63
2018-11-06T05:20:14.467Z,36.50
2018-11-06T05:22:44.427Z,40.97
2018-11-06T05:25:13.823Z,41.33
2018-11-06T05:27:43.215Z,40.97
2018-11-06T05:30:12.831Z,38.77
2018-11-06T05:32:43.393Z,37.20
2018-11-06T05:35:12.887Z,44.50
2018-11-06T05:37:42.112Z,39.67
2018-11-06T05:40:22.135Z,42.00
2018-11-06T05:42:51.497Z,42.77
2018-11-06T05:45:20.803Z,42.73
2018-11-06T05:47:49.912Z,43.53
2018-11-06T05:50:19.312Z,46.23
2018-11-06T05:52:48.665Z,39.20
2018-11-06T05:55:17.984Z,38.60
2018-11-06T05:57:47.112Z,33.07
2018-11-06T06:00:16.587Z,39.23
2018-11-06T06:02:45.628Z,35.20
2018-11-06T06:05:14.938Z,36.13
2018-11-06T06:07:44.205Z,36.83
2018-11-06T06:10:13.293Z,34.60
2018-11-06T06:12:42.395Z,37.60
2018-11-06T06:15:12.718Z,39.03
2018-11-06T06:17:41.894Z,38.60
2018-11-06T06:20:11.209Z,36.70
2018-11-06T06:22:40.816Z,41.30
2018-11-06T06:25:10.235Z,37.73
2018-11-06T06:27:39.422Z,47.80
2018-11-06T06:30:11.093Z,44.80
2018-11-06T06:32:40.375Z,43.27
2018-11-06T06:35:09.818Z,37.53
2018-11-06T06:37:39.255Z,39.20
2018-11-06T06:40:11.499Z,46.13
2018-11-06T06:42:41.003Z,38.70
2018-11-06T06:45:12.118Z,50.33
2018-11-06T06:47:41.269Z,44.83
2018-11-06T06:50:12.941Z,47.63
2018-11-06T06:52:42.486Z,43.27
2018-11-06T06:55:12.743Z,43.60
2018-11-06T06:57:42.688Z,43.10
2018-11-06T07:00:14.127Z,42.60
2018-11-06T07:02:43.351Z,49.00
2018-11-06T07:05:13.819Z,49.60
2018-11-06T07:07:43.467Z,54.40
2018-11-06T07:10:14.600Z,50.00
2018-11-06T07:12:44.823Z,46.00
2018-11-06T07:15:16.893Z,47.40
2018-11-06T07:17:47.027Z,39.43
2018-11-06T07:20:19.491Z,43.23
2018-11-06T07:22:48.743Z,37.40
2018-11-06T07:25:17.941Z,44.23
2018-11-06T07:27:47.948Z,39.47
2018-11-06T07:30:19.200Z,36.77
2018-11-06T07:32:48.905Z,50.37
2018-11-06T07:35:19.031Z,31.00
2018-11-06T07:37:48.111Z,35.77
2018-11-06T07:40:19.143Z,40.00
2018-11-06T07:42:48.163Z,31.07
2018-11-06T07:45:18.772Z,32.53
2018-11-06T07:47:47.851Z,26.97
2018-11-06T07:50:16.978Z,28.53
2018-11-06T07:52:46.281Z,29.70
2018-11-06T07:55:17.455Z,27.10
2018-11-06T07:57:46.728Z,27.73
2018-11-06T08:00:21.563Z,27.73
2018-11-06T08:02:51.332Z,27.30
2018-11-06T08:05:20.836Z,29.13
2018-11-06T08:07:50.850Z,26.13
2018-11-06T08:10:20.120Z,27.20
2018-11-06T08:12:51.605Z,25.80
2018-11-06T08:15:20.834Z,24.63
2018-11-06T08:17:50.282Z,20.77
2018-11-06T08:20:19.519Z,20.83
2018-11-06T08:22:48.860Z,19.80
2018-11-06T08:25:18.513Z,19.07
2018-11-06T08:27:47.777Z,19.17
2018-11-06T08:30:16.805Z,18.70
2018-11-06T08:32:46.527Z,17.43
2018-11-06T08:35:17.205Z,19.63
2018-11-06T08:37:46.490Z,16.37
2018-11-06T08:40:16.925Z,15.77
2018-11-06T08:42:46.110Z,14.60
2018-11-06T08:45:16.102Z,15.37
2018-11-06T08:47:45.770Z,15.10
2018-11-06T08:50:16.103Z,16.70
2018-11-06T08:52:45.339Z,16.60
2018-11-06T08:55:15.189Z,16.00
2018-11-06T08:57:45.349Z,17.30
2018-11-06T09:00:17.724Z,16.60
2018-11-06T09:02:47.917Z,18.40
2018-11-06T09:05:17.654Z,15.27
2018-11-06T09:07:47.169Z,18.23
2018-11-06T09:10:17.063Z,18.13
2018-11-06T09:12:46.258Z,14.63
2018-11-06T09:15:16.325Z,15.50
2018-11-06T09:17:45.828Z,14.83
2018-11-06T09:20:15.942Z,15.10
2018-11-06T09:22:45.342Z,18.03
2018-11-06T09:25:15.857Z,15.07
2018-11-06T09:27:45.448Z,17.17
2018-11-06T09:30:15.779Z,17.70
2018-11-06T09:32:45.127Z,15.73
2018-11-06T09:35:14.698Z,14.50
2018-11-06T09:37:44.364Z,12.60
2018-11-06T09:49:24.256Z,14.97
2018-11-06T09:51:53.514Z,14.80
2018-11-06T09:54:22.771Z,16.20
2018-11-06T09:56:51.943Z,24.73
2018-11-06T09:59:21.088Z,19.67
2018-11-06T10:01:50.128Z,22.60
2018-11-06T10:04:19.305Z,21.20
2018-11-06T10:06:48.702Z,25.00
2018-11-06T10:09:17.849Z,23.83
2018-11-06T10:11:46.964Z,20.80
2018-11-06T10:14:15.986Z,20.33
2018-11-06T10:16:45.109Z,19.30
2018-11-06T10:19:14.221Z,22.43
2018-11-06T10:21:43.641Z,21.33
2018-11-06T10:24:12.802Z,19.10
2018-11-06T10:26:41.773Z,20.63
2018-11-06T10:29:10.913Z,18.60
2018-11-06T10:31:40.056Z,19.37
2018-11-06T10:34:12.342Z,19.90
2018-11-06T10:36:41.529Z,22.60
2018-11-06T10:39:12.416Z,20.80
2018-11-06T10:41:42.003Z,20.53
2018-11-06T10:44:11.407Z,17.33
2018-11-06T10:46:40.470Z,16.10
2018-11-06T10:49:10.621Z,17.23
2018-11-06T10:51:39.829Z,22.80
2018-11-06T10:54:08.881Z,19.70
2018-11-06T10:56:38.006Z,18.17
2018-11-06T10:59:07.081Z,15.90
2018-11-06T11:01:41.197Z,20.43
2018-11-06T11:04:15.850Z,17.63
2018-11-06T11:06:44.880Z,19.13
2018-11-06T11:09:14.237Z,13.50
2018-11-06T11:11:43.715Z,19.40
2018-11-06T11:14:13.365Z,13.80
2018-11-06T11:16:42.475Z,14.03
2018-11-06T11:19:11.620Z,13.07
2018-11-06T11:21:40.725Z,20.20
2018-11-06T11:24:09.940Z,14.00
2018-11-06T11:26:39.024Z,12.73
2018-11-06T11:29:08.085Z,13.97
2018-11-06T11:31:37.455Z,19.07
2018-11-06T11:34:06.570Z,14.17
2018-11-06T11:36:35.543Z,14.50
2018-11-06T11:39:05.989Z,14.50
2018-11-06T11:41:35.079Z,13.63
2018-11-06T11:44:04.722Z,14.97
2018-11-06T11:46:34.191Z,16.27
2018-11-06T11:49:03.784Z,12.40
2018-11-06T11:51:33.101Z,18.53
2018-11-06T11:54:02.190Z,13.90
2018-11-06T11:56:31.599Z,11.67
2018-11-06T11:59:00.898Z,12.43
2018-11-06T12:01:30.324Z,10.73
2018-11-06T12:03:59.387Z,11.87
2018-11-06T12:06:28.512Z,11.00
2018-11-06T12:08:57.728Z,10.90
2018-11-06T12:11:26.870Z,12.93
2018-11-06T12:13:55.960Z,12.67
2018-11-06T12:16:24.945Z,14.03
2018-11-06T12:18:54.080Z,10.13
2018-11-06T12:21:23.533Z,13.37
2018-11-06T12:23:52.779Z,15.00
2018-11-06T12:26:21.807Z,14.50
2018-11-06T12:28:50.860Z,15.07
2018-11-06T12:31:19.930Z,13.30
2018-11-06T12:33:48.924Z,10.60
2018-11-06T12:36:18.170Z,10.13
2018-11-06T12:38:47.254Z,11.37
2018-11-06T12:41:16.371Z,12.40
2018-11-06T12:43:45.381Z,14.27
2018-11-06T12:46:14.360Z,8.80
2018-11-06T12:48:43.407Z,8.30
2018-11-06T12:51:12.577Z,14.50
2018-11-06T12:53:41.775Z,12.27
2018-11-06T12:56:10.785Z,11.90
2018-11-06T12:58:39.838Z,11.57
2018-11-06T13:01:08.859Z,11.57
2018-11-06T13:03:37.817Z,10.50
2018-11-06T13:06:07.141Z,10.10
2018-11-06T13:08:36.144Z,11.40
2018-11-06T13:11:05.202Z,10.93
2018-11-06T13:13:34.209Z,11.47
2018-11-06T13:16:04.032Z,11.10
2018-11-06T13:18:33.982Z,13.10
2018-11-06T13:21:04.207Z,11.93
2018-11-06T13:23:33.432Z,8.53
2018-11-06T13:26:02.513Z,10.40
2018-11-06T13:28:31.519Z,14.40
2018-11-06T13:31:00.577Z,10.37
2018-11-06T13:33:29.636Z,13.60
2018-11-06T13:35:58.729Z,12.53
2018-11-06T13:38:27.915Z,10.10
2018-11-06T13:40:57.159Z,11.37
2018-11-06T13:43:26.328Z,12.80
2018-11-06T13:45:55.312Z,12.67
2018-11-06T13:48:24.387Z,11.70
2018-11-06T13:50:53.508Z,9.33
2018-11-06T13:53:23.528Z,9.57
2018-11-06T13:55:52.738Z,13.70
2018-11-06T13:58:21.904Z,17.80
2018-11-06T14:00:51.651Z,13.20
2018-11-06T14:03:21.310Z,9.73
2018-11-06T14:05:50.418Z,12.73
2018-11-06T14:08:19.848Z,8.97
2018-11-06T14:10:49.170Z,9.27
2018-11-06T14:13:18.295Z,7.70
2018-11-06T14:15:47.484Z,10.53
2018-11-06T14:18:16.851Z,10.77
2018-11-06T14:20:46.026Z,10.33
2018-11-06T14:23:15.233Z,13.83
2018-11-06T14:25:44.375Z,12.93
2018-11-06T14:28:13.370Z,10.60
2018-11-06T14:30:43.066Z,15.67
2018-11-06T14:33:12.114Z,9.27
2018-11-06T14:35:41.586Z,10.90
2018-11-06T14:38:10.951Z,11.80
2018-11-06T14:40:40.228Z,10.10
2018-11-06T14:43:09.483Z,10.17
2018-11-06T14:45:38.638Z,12.30
2018-11-06T14:48:08.053Z,8.53
2018-11-06T14:50:37.100Z,9.53
2018-11-06T14:53:06.160Z,13.70
2018-11-06T14:55:35.600Z,10.23
2018-11-06T14:58:04.974Z,12.77
2018-11-06T15:00:34.129Z,9.60
2018-11-06T15:03:03.477Z,10.10
2018-11-06T15:05:32.736Z,12.20
2018-11-06T15:08:02.116Z,9.33
2018-11-06T15:10:31.489Z,11.43
2018-11-06T15:13:00.560Z,8.43
2018-11-06T15:15:29.521Z,12.73
2018-11-06T15:17:58.857Z,15.90
2018-11-06T15:20:28.045Z,12.33
2018-11-06T15:22:57.133Z,14.10
2018-11-06T15:25:26.571Z,10.37
2018-11-06T15:27:55.955Z,9.10
2018-11-06T15:30:25.052Z,8.93
2018-11-06T15:32:54.302Z,11.03
2018-11-06T15:35:23.383Z,17.73
2018-11-06T15:37:52.637Z,13.10
2018-11-06T15:40:22.289Z,11.40
2018-11-06T15:42:51.579Z,11.13
2018-11-06T15:45:21.664Z,11.43
2018-11-06T15:47:50.797Z,15.10
2018-11-06T15:50:20.814Z,15.97
2018-11-06T15:52:50.743Z,15.50
2018-11-06T15:55:20.083Z,14.13
2018-11-06T15:57:49.494Z,15.47
2018-11-06T16:00:20.890Z,15.60
2018-11-06T16:02:50.836Z,16.63
2018-11-06T16:05:20.450Z,14.37
2018-11-06T16:07:50.532Z,14.63
2018-11-06T16:10:21.570Z,11.40
2018-11-06T16:12:51.589Z,12.60
2018-11-06T16:15:22.095Z,16.47
2018-11-06T16:17:51.497Z,16.47
2018-11-06T16:20:21.473Z,11.93
2018-11-06T16:22:50.886Z,22.60
2018-11-06T16:25:20.724Z,16.37
2018-11-06T16:27:50.218Z,30.77
2018-11-06T16:30:20.814Z,18.40
2018-11-06T16:32:50.260Z,16.20
2018-11-06T16:35:20.624Z,16.97
2018-11-06T16:37:49.979Z,13.10
2018-11-06T16:40:19.695Z,14.73
2018-11-06T16:42:49.831Z,15.70
2018-11-06T16:45:20.468Z,15.07
2018-11-06T16:47:50.710Z,17.63
2018-11-06T16:50:20.208Z,13.20
2018-11-06T16:52:49.531Z,18.43
2018-11-06T16:55:19.461Z,16.27
2018-11-06T16:57:48.732Z,16.10
2018-11-06T17:00:19.809Z,18.93
2018-11-06T17:02:48.735Z,15.70
2018-11-06T17:05:17.769Z,23.87
2018-11-06T17:07:47.566Z,18.63
2018-11-06T17:10:17.419Z,16.93
2018-11-06T17:12:46.755Z,19.73
2018-11-06T17:15:18.070Z,16.67
2018-11-06T17:17:48.187Z,16.23
2018-11-06T17:20:17.880Z,16.43
2018-11-06T17:22:47.736Z,15.23
2018-11-06T17:25:18.174Z,12.10
2018-11-06T17:27:47.662Z,13.90
2018-11-06T17:30:17.738Z,12.93
2018-11-06T17:32:47.097Z,13.07
2018-11-06T17:35:17.601Z,12.90
2018-11-06T17:37:46.952Z,17.07
2018-11-06T17:40:17.713Z,12.73
2018-11-06T17:42:47.117Z,17.80
2018-11-06T17:45:19.628Z,9.60
2018-11-06T17:47:49.029Z,14.00
2018-11-06T17:50:18.871Z,10.07
2018-11-06T17:52:48.304Z,11.93
2018-11-06T17:55:19.737Z,12.20
2018-11-06T17:57:49.062Z,17.77
2018-11-06T18:00:20.315Z,11.67
2018-11-06T18:02:49.761Z,12.40
2018-11-06T18:05:20.220Z,12.97
2018-11-06T18:07:49.618Z,12.67
2018-11-06T18:10:19.735Z,12.80
2018-11-06T18:12:48.798Z,12.27
2018-11-06T18:15:18.297Z,10.03
2018-11-06T18:17:47.670Z,14.13
2018-11-06T18:20:16.867Z,9.50
2018-11-06T18:22:46.557Z,12.73
2018-11-06T18:25:16.152Z,16.40
2018-11-06T18:27:45.436Z,12.77
2018-11-06T18:30:16.639Z,16.13
2018-11-06T18:32:45.864Z,16.00
2018-11-06T18:35:15.961Z,16.77
2018-11-06T18:37:45.214Z,49.03
2018-11-06T18:40:16.411Z,16.90
2018-11-06T18:42:46.585Z,16.03
2018-11-06T18:45:16.124Z,16.50
2018-11-06T18:47:45.559Z,15.60
2018-11-06T18:50:16.319Z,16.90
2018-11-06T18:52:46.848Z,18.83
2018-11-06T18:55:15.956Z,14.17
2018-11-06T18:57:45.660Z,14.17
2018-11-06T19:00:19.056Z,43.83
2018-11-06T19:02:49.512Z,14.43
2018-11-06T19:05:19.448Z,17.77
2018-11-06T19:07:48.850Z,17.17
2018-11-06T19:10:18.486Z,20.73
2018-11-06T19:12:47.948Z,15.17
2018-11-06T19:15:18.644Z,16.23
2018-11-06T19:17:48.125Z,16.37
2018-11-06T19:20:17.395Z,14.43
2018-11-06T19:22:46.905Z,16.20
2018-11-06T19:25:16.407Z,16.53
2018-11-06T19:27:45.463Z,14.97
2018-11-06T19:30:16.480Z,16.10
2018-11-06T19:32:46.054Z,16.53
2018-11-06T19:35:15.379Z,19.37
2018-11-06T19:37:44.746Z,16.60
2018-11-06T19:40:15.175Z,13.73
2018-11-06T19:42:45.570Z,18.97
2018-11-06T19:45:14.883Z,16.53
2018-11-06T19:47:44.239Z,16.83
2018-11-06T19:59:24.254Z,19.20
2018-11-06T20:01:53.482Z,17.80
2018-11-06T20:04:22.853Z,19.50
2018-11-06T20:06:52.128Z,19.40
2018-11-06T20:09:21.384Z,15.67
2018-11-06T20:11:50.949Z,19.73
2018-11-06T20:14:21.486Z,16.40
2018-11-06T20:16:50.643Z,17.10
2018-11-06T20:19:20.061Z,17.40
2018-11-06T20:21:49.322Z,20.60
2018-11-06T20:24:18.710Z,18.20
2018-11-06T20:26:47.865Z,17.20
2018-11-06T20:29:16.876Z,16.20
2018-11-06T20:31:46.077Z,18.53
2018-11-06T20:34:15.430Z,20.80
2018-11-06T20:36:44.526Z,18.53
2018-11-06T20:39:13.839Z,17.67
2018-11-06T20:41:42.953Z,20.50
2018-11-06T20:44:12.199Z,20.13
2018-11-06T20:46:41.422Z,17.63
2018-11-06T20:49:10.535Z,18.10
2018-11-06T20:51:40.424Z,19.40
2018-11-06T20:54:09.533Z,17.47
2018-11-06T20:56:38.636Z,19.43
2018-11-06T20:59:08.146Z,16.87
2018-11-06T21:01:37.236Z,21.40
2018-11-06T21:04:06.514Z,16.97
2018-11-06T21:06:35.657Z,19.63
2018-11-06T21:09:06.771Z,19.73
2018-11-06T21:11:35.983Z,18.47
2018-11-06T21:14:05.378Z,18.53
2018-11-06T21:16:34.689Z,21.10
2018-11-06T21:19:03.812Z,16.33
2018-11-06T21:21:33.047Z,21.73
2018-11-06T21:24:02.706Z,18.37
2018-11-06T21:26:31.941Z,20.67
2018-11-06T21:29:01.175Z,24.60
2018-11-06T21:31:30.760Z,20.43
2018-11-06T21:34:00.062Z,18.50
2018-11-06T21:36:29.259Z,19.60
2018-11-06T21:38:58.584Z,19.10
2018-11-06T21:41:28.023Z,20.67
2018-11-06T21:43:57.145Z,20.37
2018-11-06T21:46:26.458Z,16.83
2018-11-06T21:48:55.556Z,20.53
2018-11-06T21:51:24.869Z,21.37
2018-11-06T21:53:54.118Z,16.80
2018-11-06T21:56:23.380Z,20.07
2018-11-06T21:58:52.726Z,21.73
2018-11-06T22:01:22.159Z,21.67
2018-11-06T22:03:52.749Z,18.73
2018-11-06T22:06:22.015Z,19.57
2018-11-06T22:08:51.398Z,19.47
2018-11-06T22:11:26.993Z,17.70
2018-11-06T22:13:57.012Z,18.17
2018-11-06T22:16:26.343Z,21.10
2018-11-06T22:18:55.638Z,19.47
2018-11-06T22:21:24.883Z,19.53
2018-11-06T22:23:54.324Z,20.67
2018-11-06T22:26:23.635Z,22.17
2018-11-06T22:28:53.339Z,20.10
2018-11-06T22:31:22.586Z,17.77
2018-11-06T22:33:51.752Z,21.80
2018-11-06T22:36:21.223Z,17.23
2018-11-06T22:38:50.821Z,27.13
2018-11-06T22:41:20.016Z,23.03
2018-11-06T22:43:49.971Z,19.73
2018-11-06T22:46:19.167Z,18.53
2018-11-06T22:48:48.702Z,18.30
2018-11-06T22:51:17.810Z,23.80
2018-11-06T22:53:46.943Z,19.80
2018-11-06T22:56:15.892Z,23.00
2018-11-06T22:58:44.915Z,15.80
2018-11-06T23:01:19.558Z,23.90
2018-11-06T23:03:48.810Z,22.87
2018-11-06T23:06:18.550Z,19.13
2018-11-06T23:08:47.744Z,20.47
2018-11-06T23:11:16.878Z,19.03
2018-11-06T23:13:46.102Z,21.70
2018-11-06T23:16:15.269Z,24.43
2018-11-06T23:18:44.568Z,20.10
2018-11-06T23:21:13.957Z,17.40
2018-11-06T23:23:43.335Z,15.60
2018-11-06T23:26:12.429Z,20.20
2018-11-06T23:28:41.845Z,24.03
2018-11-06T23:31:11.158Z,17.73
2018-11-06T23:33:40.376Z,19.70
2018-11-06T23:36:09.663Z,22.57
2018-11-06T23:38:38.883Z,21.73
2018-11-06T23:41:07.922Z,20.83
2018-11-06T23:43:37.184Z,18.87
2018-11-06T23:46:06.862Z,19.80
2018-11-06T23:48:36.203Z,19.00
2018-11-06T23:51:05.498Z,18.93
2018-11-06T23:53:34.518Z,23.67
2018-11-06T23:56:03.753Z,19.80
2018-11-06T23:58:32.975Z,21.27
